sensor_id;sensor_type;location;lat;lon;timestamp;P1;durP1;ratioP1;P2;durP2;ratioP2
77217;SDS011;66214;51.302;17.068;2024-02-21T00:00:38;14.60;;;4.40;;
77217;SDS011;66214;51.302;17.068;2024-02-21T00:03:44;21.80;;;5.10;;
77217;SDS011;66214;51.302;17.068;2024-02-21T00:06:12;18.40;;;4.60;;
77217;SDS011;66214;51.302;17.068;2024-02-21T00:08:40;15.60;;;4.60;;
77217;SDS011;66214;51.302;17.068;2024-02-21T00:11:08;20.40;;;4.90;;
77217;SDS011;66214;51.302;17.068;2024-02-21T00:13:37;12.90;;;3.70;;
77217;SDS011;66214;51.302;17.068;2024-02-21T00:16:05;17.80;;;4.70;;
77217;SDS011;66214;51.302;17.068;2024-02-21T00:18:33;15.30;;;4.50;;
77217;SDS011;66214;51.302;17.068;2024-02-21T00:21:01;13.00;;;5.00;;
77217;SDS011;66214;51.302;17.068;2024-02-21T00:23:30;16.20;;;4.00;;
77217;SDS011;66214;51.302;17.068;2024-02-21T00:25:58;13.70;;;3.20;;
77217;SDS011;66214;51.302;17.068;2024-02-21T00:28:27;10.30;;;3.10;;
77217;SDS011;66214;51.302;17.068;2024-02-21T00:30:55;14.90;;;3.80;;
77217;SDS011;66214;51.302;17.068;2024-02-21T00:33:23;19.80;;;4.00;;
77217;SDS011;66214;51.302;17.068;2024-02-21T00:35:51;14.50;;;3.80;;
77217;SDS011;66214;51.302;17.068;2024-02-21T00:38:19;18.40;;;4.40;;
77217;SDS011;66214;51.302;17.068;2024-02-21T00:40:47;15.20;;;4.00;;
77217;SDS011;66214;51.302;17.068;2024-02-21T00:43:15;14.10;;;3.70;;
77217;SDS011;66214;51.302;17.068;2024-02-21T00:45:43;13.60;;;3.80;;
77217;SDS011;66214;51.302;17.068;2024-02-21T00:48:11;14.10;;;4.50;;
77217;SDS011;66214;51.302;17.068;2024-02-21T00:50:39;18.30;;;4.10;;
77217;SDS011;66214;51.302;17.068;2024-02-21T00:53:07;17.70;;;4.20;;
77217;SDS011;66214;51.302;17.068;2024-02-21T00:55:35;19.10;;;4.10;;
77217;SDS011;66214;51.302;17.068;2024-02-21T00:58:03;12.00;;;3.70;;
77217;SDS011;66214;51.302;17.068;2024-02-21T01:00:32;16.50;;;3.80;;
77217;SDS011;66214;51.302;17.068;2024-02-21T01:03:00;11.80;;;3.30;;
77217;SDS011;66214;51.302;17.068;2024-02-21T01:05:28;10.10;;;3.10;;
77217;SDS011;66214;51.302;17.068;2024-02-21T01:07:56;15.80;;;3.40;;
77217;SDS011;66214;51.302;17.068;2024-02-21T01:10:24;14.40;;;3.80;;
77217;SDS011;66214;51.302;17.068;2024-02-21T01:12:52;14.70;;;3.40;;
77217;SDS011;66214;51.302;17.068;2024-02-21T01:15:20;13.00;;;3.80;;
77217;SDS011;66214;51.302;17.068;2024-02-21T01:17:48;16.20;;;3.10;;
77217;SDS011;66214;51.302;17.068;2024-02-21T01:20:18;14.10;;;4.10;;
77217;SDS011;66214;51.302;17.068;2024-02-21T01:22:47;13.70;;;2.90;;
77217;SDS011;66214;51.302;17.068;2024-02-21T01:25:15;14.00;;;3.70;;
77217;SDS011;66214;51.302;17.068;2024-02-21T01:27:43;15.80;;;3.90;;
77217;SDS011;66214;51.302;17.068;2024-02-21T01:30:12;16.20;;;4.00;;
77217;SDS011;66214;51.302;17.068;2024-02-21T01:32:40;13.40;;;4.10;;
77217;SDS011;66214;51.302;17.068;2024-02-21T01:35:09;15.40;;;4.10;;
77217;SDS011;66214;51.302;17.068;2024-02-21T01:37:37;15.00;;;4.10;;
77217;SDS011;66214;51.302;17.068;2024-02-21T01:40:05;15.00;;;3.80;;
77217;SDS011;66214;51.302;17.068;2024-02-21T01:42:38;12.90;;;3.60;;
77217;SDS011;66214;51.302;17.068;2024-02-21T01:45:08;14.80;;;4.50;;
77217;SDS011;66214;51.302;17.068;2024-02-21T01:47:38;15.20;;;4.10;;
77217;SDS011;66214;51.302;17.068;2024-02-21T01:50:07;18.80;;;4.60;;
77217;SDS011;66214;51.302;17.068;2024-02-21T05:03:49;16.20;;;4.40;;
77217;SDS011;66214;51.302;17.068;2024-02-21T05:06:17;14.30;;;4.10;;
77217;SDS011;66214;51.302;17.068;2024-02-21T05:08:47;15.70;;;4.40;;
77217;SDS011;66214;51.302;17.068;2024-02-21T05:11:15;11.80;;;3.90;;
77217;SDS011;66214;51.302;17.068;2024-02-21T05:13:43;17.40;;;5.50;;
77217;SDS011;66214;51.302;17.068;2024-02-21T05:16:11;17.00;;;5.00;;
77217;SDS011;66214;51.302;17.068;2024-02-21T05:18:40;13.60;;;4.50;;
77217;SDS011;66214;51.302;17.068;2024-02-21T05:21:10;13.90;;;4.40;;
77217;SDS011;66214;51.302;17.068;2024-02-21T05:23:39;13.70;;;4.20;;
77217;SDS011;66214;51.302;17.068;2024-02-21T05:26:09;10.40;;;3.60;;
77217;SDS011;66214;51.302;17.068;2024-02-21T05:28:37;12.00;;;4.40;;
77217;SDS011;66214;51.302;17.068;2024-02-21T05:31:06;13.30;;;4.20;;
77217;SDS011;66214;51.302;17.068;2024-02-21T05:33:34;18.50;;;5.10;;
77217;SDS011;66214;51.302;17.068;2024-02-21T05:36:03;12.20;;;4.10;;
77217;SDS011;66214;51.302;17.068;2024-02-21T05:38:32;9.70;;;3.60;;
77217;SDS011;66214;51.302;17.068;2024-02-21T05:41:01;11.50;;;3.90;;
77217;SDS011;66214;51.302;17.068;2024-02-21T05:43:29;14.60;;;4.60;;
77217;SDS011;66214;51.302;17.068;2024-02-21T05:45:58;16.10;;;5.00;;
77217;SDS011;66214;51.302;17.068;2024-02-21T05:48:26;12.20;;;3.80;;
77217;SDS011;66214;51.302;17.068;2024-02-21T05:50:55;17.20;;;4.40;;
77217;SDS011;66214;51.302;17.068;2024-02-21T05:53:23;12.70;;;4.80;;
77217;SDS011;66214;51.302;17.068;2024-02-21T05:55:51;10.50;;;4.30;;
77217;SDS011;66214;51.302;17.068;2024-02-21T05:58:20;12.80;;;4.70;;
77217;SDS011;66214;51.302;17.068;2024-02-21T06:00:49;15.40;;;5.20;;
77217;SDS011;66214;51.302;17.068;2024-02-21T06:03:17;19.20;;;5.50;;
77217;SDS011;66214;51.302;17.068;2024-02-21T06:05:46;16.40;;;5.00;;
77217;SDS011;66214;51.302;17.068;2024-02-21T06:08:14;14.70;;;5.40;;
77217;SDS011;66214;51.302;17.068;2024-02-21T06:10:42;12.30;;;4.60;;
77217;SDS011;66214;51.302;17.068;2024-02-21T06:13:11;18.10;;;5.20;;
77217;SDS011;66214;51.302;17.068;2024-02-21T06:15:39;12.40;;;4.20;;
77217;SDS011;66214;51.302;17.068;2024-02-21T06:18:07;15.60;;;4.80;;
77217;SDS011;66214;51.302;17.068;2024-02-21T06:20:35;14.70;;;5.00;;
77217;SDS011;66214;51.302;17.068;2024-02-21T06:23:04;19.90;;;6.00;;
77217;SDS011;66214;51.302;17.068;2024-02-21T06:25:32;13.40;;;5.70;;
77217;SDS011;66214;51.302;17.068;2024-02-21T06:28:00;15.60;;;5.40;;
77217;SDS011;66214;51.302;17.068;2024-02-21T06:30:29;14.20;;;4.70;;
77217;SDS011;66214;51.302;17.068;2024-02-21T06:32:57;9.50;;;4.20;;
77217;SDS011;66214;51.302;17.068;2024-02-21T06:35:26;14.00;;;5.80;;
77217;SDS011;66214;51.302;17.068;2024-02-21T06:37:55;14.00;;;4.90;;
77217;SDS011;66214;51.302;17.068;2024-02-21T06:40:23;15.00;;;4.70;;
77217;SDS011;66214;51.302;17.068;2024-02-21T06:42:52;12.70;;;4.50;;
77217;SDS011;66214;51.302;17.068;2024-02-21T06:45:20;11.60;;;5.10;;
77217;SDS011;66214;51.302;17.068;2024-02-21T06:47:48;12.70;;;5.00;;
77217;SDS011;66214;51.302;17.068;2024-02-21T06:50:17;16.30;;;5.10;;
77217;SDS011;66214;51.302;17.068;2024-02-21T06:52:45;17.30;;;5.30;;
77217;SDS011;66214;51.302;17.068;2024-02-21T06:55:13;15.60;;;5.00;;
77217;SDS011;66214;51.302;17.068;2024-02-21T06:57:41;13.60;;;5.50;;
77217;SDS011;66214;51.302;17.068;2024-02-21T07:00:10;15.00;;;4.90;;
77217;SDS011;66214;51.302;17.068;2024-02-21T07:02:39;12.20;;;4.10;;
77217;SDS011;66214;51.302;17.068;2024-02-21T07:05:08;12.10;;;4.60;;
77217;SDS011;66214;51.302;17.068;2024-02-21T07:07:36;15.90;;;5.40;;
77217;SDS011;66214;51.302;17.068;2024-02-21T07:10:05;14.80;;;5.20;;
77217;SDS011;66214;51.302;17.068;2024-02-21T07:12:34;15.80;;;5.00;;
77217;SDS011;66214;51.302;17.068;2024-02-21T07:15:05;13.40;;;5.10;;
77217;SDS011;66214;51.302;17.068;2024-02-21T07:17:33;12.80;;;5.40;;
77217;SDS011;66214;51.302;17.068;2024-02-21T07:20:01;16.00;;;4.90;;
77217;SDS011;66214;51.302;17.068;2024-02-21T07:22:30;11.00;;;3.90;;
77217;SDS011;66214;51.302;17.068;2024-02-21T07:24:58;16.20;;;6.00;;
77217;SDS011;66214;51.302;17.068;2024-02-21T07:27:27;12.60;;;4.70;;
77217;SDS011;66214;51.302;17.068;2024-02-21T07:29:58;12.90;;;5.10;;
77217;SDS011;66214;51.302;17.068;2024-02-21T07:32:27;14.10;;;4.70;;
77217;SDS011;66214;51.302;17.068;2024-02-21T07:34:56;12.90;;;4.90;;
77217;SDS011;66214;51.302;17.068;2024-02-21T07:37:24;8.30;;;3.40;;
77217;SDS011;66214;51.302;17.068;2024-02-21T07:39:52;12.50;;;5.50;;
77217;SDS011;66214;51.302;17.068;2024-02-21T07:42:20;12.20;;;4.70;;
77217;SDS011;66214;51.302;17.068;2024-02-21T07:44:49;12.20;;;4.50;;
77217;SDS011;66214;51.302;17.068;2024-02-21T07:47:17;13.10;;;4.20;;
77217;SDS011;66214;51.302;17.068;2024-02-21T07:49:46;11.30;;;4.50;;
77217;SDS011;66214;51.302;17.068;2024-02-21T07:52:16;12.90;;;4.10;;
77217;SDS011;66214;51.302;17.068;2024-02-21T07:54:44;12.90;;;4.80;;
77217;SDS011;66214;51.302;17.068;2024-02-21T07:57:13;11.70;;;4.90;;
77217;SDS011;66214;51.302;17.068;2024-02-21T07:59:41;13.90;;;4.30;;
77217;SDS011;66214;51.302;17.068;2024-02-21T08:03:50;11.80;;;4.70;;
77217;SDS011;66214;51.302;17.068;2024-02-21T08:09:42;17.90;;;5.10;;
77217;SDS011;66214;51.302;17.068;2024-02-21T08:12:10;13.50;;;4.10;;
77217;SDS011;66214;51.302;17.068;2024-02-21T08:14:38;12.50;;;4.00;;
77217;SDS011;66214;51.302;17.068;2024-02-21T08:20:34;15.30;;;4.60;;
77217;SDS011;66214;51.302;17.068;2024-02-21T08:23:03;14.20;;;5.30;;
77217;SDS011;66214;51.302;17.068;2024-02-21T08:25:31;12.50;;;5.30;;
77217;SDS011;66214;51.302;17.068;2024-02-21T08:28:00;9.60;;;4.40;;
77217;SDS011;66214;51.302;17.068;2024-02-21T08:30:28;11.60;;;4.20;;
77217;SDS011;66214;51.302;17.068;2024-02-21T08:32:56;14.70;;;5.20;;
77217;SDS011;66214;51.302;17.068;2024-02-21T08:35:24;9.50;;;3.40;;
77217;SDS011;66214;51.302;17.068;2024-02-21T08:37:54;13.20;;;4.90;;
77217;SDS011;66214;51.302;17.068;2024-02-21T08:40:23;17.70;;;5.30;;
77217;SDS011;66214;51.302;17.068;2024-02-21T08:42:51;12.60;;;5.90;;
77217;SDS011;66214;51.302;17.068;2024-02-21T08:45:21;13.10;;;5.00;;
77217;SDS011;66214;51.302;17.068;2024-02-21T08:47:50;16.70;;;5.90;;
77217;SDS011;66214;51.302;17.068;2024-02-21T08:50:18;14.10;;;5.40;;
77217;SDS011;66214;51.302;17.068;2024-02-21T08:52:46;16.90;;;6.50;;
77217;SDS011;66214;51.302;17.068;2024-02-21T08:55:15;14.70;;;5.40;;
77217;SDS011;66214;51.302;17.068;2024-02-21T08:57:43;15.00;;;5.70;;
77217;SDS011;66214;51.302;17.068;2024-02-21T09:00:13;13.60;;;4.90;;
77217;SDS011;66214;51.302;17.068;2024-02-21T09:02:56;21.30;;;6.20;;
77217;SDS011;66214;51.302;17.068;2024-02-21T09:05:25;12.20;;;4.90;;
77217;SDS011;66214;51.302;17.068;2024-02-21T09:07:54;14.70;;;5.20;;
77217;SDS011;66214;51.302;17.068;2024-02-21T09:10:22;12.70;;;5.00;;
77217;SDS011;66214;51.302;17.068;2024-02-21T09:16:03;15.80;;;4.70;;
77217;SDS011;66214;51.302;17.068;2024-02-21T09:18:32;11.40;;;4.40;;
77217;SDS011;66214;51.302;17.068;2024-02-21T09:21:02;14.40;;;6.10;;
77217;SDS011;66214;51.302;17.068;2024-02-21T09:23:32;14.20;;;5.60;;
77217;SDS011;66214;51.302;17.068;2024-02-21T09:26:01;13.60;;;5.00;;
77217;SDS011;66214;51.302;17.068;2024-02-21T09:28:33;19.10;;;6.20;;
77217;SDS011;66214;51.302;17.068;2024-02-21T09:31:03;17.00;;;6.20;;
77217;SDS011;66214;51.302;17.068;2024-02-21T09:33:31;18.50;;;6.40;;
77217;SDS011;66214;51.302;17.068;2024-02-21T09:36:01;15.50;;;5.40;;
77217;SDS011;66214;51.302;17.068;2024-02-21T09:38:33;12.70;;;3.90;;
77217;SDS011;66214;51.302;17.068;2024-02-21T09:41:16;15.90;;;6.70;;
77217;SDS011;66214;51.302;17.068;2024-02-21T09:43:46;17.10;;;7.00;;
77217;SDS011;66214;51.302;17.068;2024-02-21T09:46:19;17.80;;;6.40;;
77217;SDS011;66214;51.302;17.068;2024-02-21T09:51:51;12.10;;;5.50;;
77217;SDS011;66214;51.302;17.068;2024-02-21T09:54:23;18.20;;;6.10;;
77217;SDS011;66214;51.302;17.068;2024-02-21T09:56:53;12.60;;;5.30;;
77217;SDS011;66214;51.302;17.068;2024-02-21T09:59:23;13.60;;;5.30;;
77217;SDS011;66214;51.302;17.068;2024-02-21T10:01:53;15.20;;;5.80;;
77217;SDS011;66214;51.302;17.068;2024-02-21T10:04:24;13.90;;;5.20;;
77217;SDS011;66214;51.302;17.068;2024-02-21T10:06:54;16.10;;;6.20;;
77217;SDS011;66214;51.302;17.068;2024-02-21T10:09:27;15.50;;;6.50;;
77217;SDS011;66214;51.302;17.068;2024-02-21T10:12:11;15.30;;;6.70;;
77217;SDS011;66214;51.302;17.068;2024-02-21T10:15:06;17.50;;;5.30;;
77217;SDS011;66214;51.302;17.068;2024-02-21T10:17:35;15.30;;;5.70;;
77217;SDS011;66214;51.302;17.068;2024-02-21T10:24:01;12.60;;;4.30;;
77217;SDS011;66214;51.302;17.068;2024-02-21T10:26:43;17.80;;;5.20;;
77217;SDS011;66214;51.302;17.068;2024-02-21T10:29:11;12.60;;;4.40;;
77217;SDS011;66214;51.302;17.068;2024-02-21T10:31:39;10.70;;;4.10;;
77217;SDS011;66214;51.302;17.068;2024-02-21T10:34:08;13.80;;;4.70;;
77217;SDS011;66214;51.302;17.068;2024-02-21T10:36:36;16.70;;;5.90;;
77217;SDS011;66214;51.302;17.068;2024-02-21T10:39:05;14.10;;;5.20;;
77217;SDS011;66214;51.302;17.068;2024-02-21T10:41:36;14.50;;;5.00;;
77217;SDS011;66214;51.302;17.068;2024-02-21T10:44:08;16.10;;;4.50;;
77217;SDS011;66214;51.302;17.068;2024-02-21T10:46:38;17.50;;;6.00;;
77217;SDS011;66214;51.302;17.068;2024-02-21T10:49:10;11.90;;;4.30;;
77217;SDS011;66214;51.302;17.068;2024-02-21T10:51:45;15.10;;;5.10;;
77217;SDS011;66214;51.302;17.068;2024-02-21T10:54:39;13.50;;;4.90;;
77217;SDS011;66214;51.302;17.068;2024-02-21T10:57:15;14.30;;;4.80;;
77217;SDS011;66214;51.302;17.068;2024-02-21T10:59:45;15.50;;;5.50;;
77217;SDS011;66214;51.302;17.068;2024-02-21T11:03:53;13.50;;;5.30;;
77217;SDS011;66214;51.302;17.068;2024-02-21T11:06:23;12.10;;;4.90;;
77217;SDS011;66214;51.302;17.068;2024-02-21T11:09:06;15.30;;;5.60;;
77217;SDS011;66214;51.302;17.068;2024-02-21T11:11:56;14.90;;;5.30;;
77217;SDS011;66214;51.302;17.068;2024-02-21T11:14:29;12.70;;;4.30;;
77217;SDS011;66214;51.302;17.068;2024-02-21T11:17:01;10.50;;;3.90;;
77217;SDS011;66214;51.302;17.068;2024-02-21T11:19:31;13.70;;;4.10;;
77217;SDS011;66214;51.302;17.068;2024-02-21T11:22:00;17.30;;;5.20;;
77217;SDS011;66214;51.302;17.068;2024-02-21T11:24:30;14.70;;;4.70;;
77217;SDS011;66214;51.302;17.068;2024-02-21T11:27:11;13.70;;;5.10;;
77217;SDS011;66214;51.302;17.068;2024-02-21T11:29:44;14.90;;;5.00;;
77217;SDS011;66214;51.302;17.068;2024-02-21T11:32:18;13.00;;;5.30;;
77217;SDS011;66214;51.302;17.068;2024-02-21T11:34:57;15.20;;;5.80;;
77217;SDS011;66214;51.302;17.068;2024-02-21T11:37:34;11.90;;;4.80;;
77217;SDS011;66214;51.302;17.068;2024-02-21T11:40:07;13.20;;;5.10;;
77217;SDS011;66214;51.302;17.068;2024-02-21T11:42:38;16.70;;;5.50;;
77217;SDS011;66214;51.302;17.068;2024-02-21T11:45:07;13.90;;;5.20;;
77217;SDS011;66214;51.302;17.068;2024-02-21T11:47:39;14.40;;;5.80;;
77217;SDS011;66214;51.302;17.068;2024-02-21T11:50:12;17.30;;;5.40;;
77217;SDS011;66214;51.302;17.068;2024-02-21T11:52:40;14.90;;;5.20;;
77217;SDS011;66214;51.302;17.068;2024-02-21T11:55:08;16.20;;;6.30;;
77217;SDS011;66214;51.302;17.068;2024-02-21T11:57:37;14.50;;;4.70;;
77217;SDS011;66214;51.302;17.068;2024-02-21T12:00:18;13.70;;;5.80;;
77217;SDS011;66214;51.302;17.068;2024-02-21T12:02:52;12.20;;;4.00;;
77217;SDS011;66214;51.302;17.068;2024-02-21T12:05:21;12.40;;;5.10;;
77217;SDS011;66214;51.302;17.068;2024-02-21T12:07:51;14.60;;;6.00;;
77217;SDS011;66214;51.302;17.068;2024-02-21T12:10:20;13.60;;;4.90;;
77217;SDS011;66214;51.302;17.068;2024-02-21T12:12:49;10.70;;;4.40;;
77217;SDS011;66214;51.302;17.068;2024-02-21T12:15:19;11.80;;;4.80;;
77217;SDS011;66214;51.302;17.068;2024-02-21T12:17:49;12.40;;;4.70;;
77217;SDS011;66214;51.302;17.068;2024-02-21T12:20:20;14.20;;;5.40;;
77217;SDS011;66214;51.302;17.068;2024-02-21T12:22:49;12.80;;;5.00;;
77217;SDS011;66214;51.302;17.068;2024-02-21T12:25:19;13.00;;;4.70;;
77217;SDS011;66214;51.302;17.068;2024-02-21T12:27:55;13.70;;;5.00;;
77217;SDS011;66214;51.302;17.068;2024-02-21T12:30:24;12.20;;;5.00;;
77217;SDS011;66214;51.302;17.068;2024-02-21T12:32:53;12.00;;;5.00;;
77217;SDS011;66214;51.302;17.068;2024-02-21T12:35:21;10.90;;;4.00;;
77217;SDS011;66214;51.302;17.068;2024-02-21T12:37:49;12.30;;;5.80;;
77217;SDS011;66214;51.302;17.068;2024-02-21T12:43:37;13.30;;;5.80;;
77217;SDS011;66214;51.302;17.068;2024-02-21T12:46:07;13.60;;;5.40;;
77217;SDS011;66214;51.302;17.068;2024-02-21T12:48:36;15.90;;;5.70;;
77217;SDS011;66214;51.302;17.068;2024-02-21T12:51:05;15.20;;;5.90;;
77217;SDS011;66214;51.302;17.068;2024-02-21T12:53:37;13.00;;;5.60;;
77217;SDS011;66214;51.302;17.068;2024-02-21T12:56:24;13.40;;;5.30;;
77217;SDS011;66214;51.302;17.068;2024-02-21T13:02:22;10.40;;;3.90;;
77217;SDS011;66214;51.302;17.068;2024-02-21T13:04:51;13.70;;;5.40;;
77217;SDS011;66214;51.302;17.068;2024-02-21T13:07:20;10.20;;;4.70;;
77217;SDS011;66214;51.302;17.068;2024-02-21T13:09:49;12.40;;;4.30;;
77217;SDS011;66214;51.302;17.068;2024-02-21T13:12:17;13.80;;;4.50;;
77217;SDS011;66214;51.302;17.068;2024-02-21T13:14:46;13.50;;;5.60;;
77217;SDS011;66214;51.302;17.068;2024-02-21T13:17:14;13.10;;;5.40;;
77217;SDS011;66214;51.302;17.068;2024-02-21T13:19:44;12.70;;;5.20;;
77217;SDS011;66214;51.302;17.068;2024-02-21T13:22:13;14.50;;;4.50;;
77217;SDS011;66214;51.302;17.068;2024-02-21T13:24:42;14.80;;;5.90;;
77217;SDS011;66214;51.302;17.068;2024-02-21T13:27:10;18.60;;;6.20;;
77217;SDS011;66214;51.302;17.068;2024-02-21T13:29:40;13.50;;;6.00;;
77217;SDS011;66214;51.302;17.068;2024-02-21T13:32:08;14.20;;;5.60;;
77217;SDS011;66214;51.302;17.068;2024-02-21T13:34:37;15.10;;;5.30;;
77217;SDS011;66214;51.302;17.068;2024-02-21T13:37:05;14.50;;;5.50;;
77217;SDS011;66214;51.302;17.068;2024-02-21T13:39:35;13.10;;;5.90;;
77217;SDS011;66214;51.302;17.068;2024-02-21T13:42:05;13.40;;;4.90;;
77217;SDS011;66214;51.302;17.068;2024-02-21T13:44:33;14.40;;;4.90;;
77217;SDS011;66214;51.302;17.068;2024-02-21T13:47:02;15.00;;;4.50;;
77217;SDS011;66214;51.302;17.068;2024-02-21T13:49:31;13.50;;;4.60;;
77217;SDS011;66214;51.302;17.068;2024-02-21T13:52:00;11.60;;;4.70;;
77217;SDS011;66214;51.302;17.068;2024-02-21T13:54:29;13.20;;;4.70;;
77217;SDS011;66214;51.302;17.068;2024-02-21T13:56:57;11.30;;;4.50;;
77217;SDS011;66214;51.302;17.068;2024-02-21T13:59:26;12.80;;;5.50;;
77217;SDS011;66214;51.302;17.068;2024-02-21T14:03:51;12.90;;;5.30;;
77217;SDS011;66214;51.302;17.068;2024-02-21T14:06:20;11.50;;;5.30;;
77217;SDS011;66214;51.302;17.068;2024-02-21T14:08:48;10.50;;;3.80;;
77217;SDS011;66214;51.302;17.068;2024-02-21T14:11:17;10.90;;;4.20;;
77217;SDS011;66214;51.302;17.068;2024-02-21T14:13:45;15.00;;;7.10;;
77217;SDS011;66214;51.302;17.068;2024-02-21T14:16:14;15.40;;;8.10;;
77217;SDS011;66214;51.302;17.068;2024-02-21T14:18:42;15.10;;;7.00;;
77217;SDS011;66214;51.302;17.068;2024-02-21T14:21:11;15.00;;;7.70;;
77217;SDS011;66214;51.302;17.068;2024-02-21T14:23:40;13.90;;;5.00;;
77217;SDS011;66214;51.302;17.068;2024-02-21T14:26:09;21.10;;;9.70;;
77217;SDS011;66214;51.302;17.068;2024-02-21T14:28:39;16.70;;;7.80;;
77217;SDS011;66214;51.302;17.068;2024-02-21T14:31:16;23.10;;;10.10;;
77217;SDS011;66214;51.302;17.068;2024-02-21T14:33:45;74.40;;;29.40;;
77217;SDS011;66214;51.302;17.068;2024-02-21T14:36:14;60.10;;;24.30;;
77217;SDS011;66214;51.302;17.068;2024-02-21T14:38:44;49.70;;;18.90;;
77217;SDS011;66214;51.302;17.068;2024-02-21T14:41:14;22.20;;;11.00;;
77217;SDS011;66214;51.302;17.068;2024-02-21T14:43:50;18.20;;;7.80;;
77217;SDS011;66214;51.302;17.068;2024-02-21T14:46:19;19.80;;;8.90;;
77217;SDS011;66214;51.302;17.068;2024-02-21T14:48:48;12.20;;;5.50;;
77217;SDS011;66214;51.302;17.068;2024-02-21T14:51:16;22.30;;;9.80;;
77217;SDS011;66214;51.302;17.068;2024-02-21T14:53:45;38.10;;;18.20;;
77217;SDS011;66214;51.302;17.068;2024-02-21T14:56:16;28.40;;;12.60;;
77217;SDS011;66214;51.302;17.068;2024-02-21T14:58:45;24.60;;;12.20;;
77217;SDS011;66214;51.302;17.068;2024-02-21T15:01:15;17.30;;;7.70;;
77217;SDS011;66214;51.302;17.068;2024-02-21T15:03:44;15.80;;;6.10;;
77217;SDS011;66214;51.302;17.068;2024-02-21T15:06:12;17.00;;;7.40;;
77217;SDS011;66214;51.302;17.068;2024-02-21T15:08:41;32.90;;;12.20;;
77217;SDS011;66214;51.302;17.068;2024-02-21T15:11:09;21.90;;;9.00;;
77217;SDS011;66214;51.302;17.068;2024-02-21T15:13:38;34.50;;;14.60;;
77217;SDS011;66214;51.302;17.068;2024-02-21T15:16:06;42.10;;;16.20;;
77217;SDS011;66214;51.302;17.068;2024-02-21T15:18:35;41.60;;;16.00;;
77217;SDS011;66214;51.302;17.068;2024-02-21T15:21:05;58.10;;;23.40;;
77217;SDS011;66214;51.302;17.068;2024-02-21T15:23:35;48.40;;;20.30;;
77217;SDS011;66214;51.302;17.068;2024-02-21T15:26:03;51.80;;;21.30;;
77217;SDS011;66214;51.302;17.068;2024-02-21T15:28:32;33.00;;;13.30;;
77217;SDS011;66214;51.302;17.068;2024-02-21T15:31:00;47.60;;;19.80;;
77217;SDS011;66214;51.302;17.068;2024-02-21T15:33:29;37.20;;;14.30;;
77217;SDS011;66214;51.302;17.068;2024-02-21T15:35:58;27.80;;;11.10;;
77217;SDS011;66214;51.302;17.068;2024-02-21T15:38:26;26.70;;;12.40;;
77217;SDS011;66214;51.302;17.068;2024-02-21T15:40:56;24.10;;;10.10;;
77217;SDS011;66214;51.302;17.068;2024-02-21T15:43:25;21.20;;;10.50;;
77217;SDS011;66214;51.302;17.068;2024-02-21T15:45:55;17.20;;;7.90;;
77217;SDS011;66214;51.302;17.068;2024-02-21T15:48:23;26.30;;;11.10;;
77217;SDS011;66214;51.302;17.068;2024-02-21T15:50:52;21.60;;;8.90;;
77217;SDS011;66214;51.302;17.068;2024-02-21T15:53:22;20.70;;;8.20;;
77217;SDS011;66214;51.302;17.068;2024-02-21T15:55:53;21.50;;;7.50;;
77217;SDS011;66214;51.302;17.068;2024-02-21T15:58:22;18.20;;;7.60;;
77217;SDS011;66214;51.302;17.068;2024-02-21T16:00:52;15.70;;;6.40;;
77217;SDS011;66214;51.302;17.068;2024-02-21T16:03:21;15.50;;;6.30;;
77217;SDS011;66214;51.302;17.068;2024-02-21T16:05:49;20.40;;;7.90;;
77217;SDS011;66214;51.302;17.068;2024-02-21T16:08:18;21.50;;;9.70;;
77217;SDS011;66214;51.302;17.068;2024-02-21T16:10:46;22.20;;;10.20;;
77217;SDS011;66214;51.302;17.068;2024-02-21T16:13:15;19.70;;;8.10;;
77217;SDS011;66214;51.302;17.068;2024-02-21T16:15:44;13.90;;;5.80;;
77217;SDS011;66214;51.302;17.068;2024-02-21T16:21:34;10.50;;;4.50;;
77217;SDS011;66214;51.302;17.068;2024-02-21T16:24:03;10.40;;;5.10;;
77217;SDS011;66214;51.302;17.068;2024-02-21T16:26:38;15.70;;;5.50;;
77217;SDS011;66214;51.302;17.068;2024-02-21T16:29:07;12.80;;;4.90;;
77217;SDS011;66214;51.302;17.068;2024-02-21T16:31:35;13.00;;;5.40;;
77217;SDS011;66214;51.302;17.068;2024-02-21T16:34:05;15.00;;;5.90;;
77217;SDS011;66214;51.302;17.068;2024-02-21T16:36:37;15.30;;;6.20;;
77217;SDS011;66214;51.302;17.068;2024-02-21T16:39:07;15.00;;;6.50;;
77217;SDS011;66214;51.302;17.068;2024-02-21T16:41:35;18.30;;;7.40;;
77217;SDS011;66214;51.302;17.068;2024-02-21T16:44:04;14.70;;;6.90;;
77217;SDS011;66214;51.302;17.068;2024-02-21T16:46:32;15.70;;;6.90;;
77217;SDS011;66214;51.302;17.068;2024-02-21T16:49:01;16.20;;;7.90;;
77217;SDS011;66214;51.302;17.068;2024-02-21T16:51:30;18.20;;;8.10;;
77217;SDS011;66214;51.302;17.068;2024-02-21T16:53:58;17.90;;;8.70;;
77217;SDS011;66214;51.302;17.068;2024-02-21T16:56:29;19.20;;;8.60;;
77217;SDS011;66214;51.302;17.068;2024-02-21T16:58:58;22.40;;;10.30;;
77217;SDS011;66214;51.302;17.068;2024-02-21T17:03:51;25.70;;;11.30;;
77217;SDS011;66214;51.302;17.068;2024-02-21T17:06:19;21.50;;;11.40;;
77217;SDS011;66214;51.302;17.068;2024-02-21T17:08:47;19.90;;;9.00;;
77217;SDS011;66214;51.302;17.068;2024-02-21T17:11:16;19.90;;;9.60;;
77217;SDS011;66214;51.302;17.068;2024-02-21T17:13:45;21.60;;;9.80;;
77217;SDS011;66214;51.302;17.068;2024-02-21T17:16:15;19.10;;;9.10;;
77217;SDS011;66214;51.302;17.068;2024-02-21T17:18:44;19.80;;;9.40;;
77217;SDS011;66214;51.302;17.068;2024-02-21T17:21:14;20.20;;;10.90;;
77217;SDS011;66214;51.302;17.068;2024-02-21T17:23:42;19.40;;;10.80;;
77217;SDS011;66214;51.302;17.068;2024-02-21T17:26:12;19.50;;;9.10;;
77217;SDS011;66214;51.302;17.068;2024-02-21T17:28:40;19.70;;;8.20;;
77217;SDS011;66214;51.302;17.068;2024-02-21T17:31:10;21.80;;;8.90;;
77217;SDS011;66214;51.302;17.068;2024-02-21T17:33:41;17.10;;;9.50;;
77217;SDS011;66214;51.302;17.068;2024-02-21T17:36:10;26.30;;;10.30;;
77217;SDS011;66214;51.302;17.068;2024-02-21T17:41:58;20.30;;;9.90;;
77217;SDS011;66214;51.302;17.068;2024-02-21T17:44:27;22.70;;;11.60;;
77217;SDS011;66214;51.302;17.068;2024-02-21T17:46:57;23.50;;;11.30;;
77217;SDS011;66214;51.302;17.068;2024-02-21T17:49:26;21.90;;;11.10;;
77217;SDS011;66214;51.302;17.068;2024-02-21T17:51:54;23.40;;;11.70;;
77217;SDS011;66214;51.302;17.068;2024-02-21T17:54:24;21.80;;;10.80;;
77217;SDS011;66214;51.302;17.068;2024-02-21T17:56:52;22.00;;;11.30;;
77217;SDS011;66214;51.302;17.068;2024-02-21T17:59:21;19.80;;;10.10;;
77217;SDS011;66214;51.302;17.068;2024-02-21T18:01:51;27.30;;;12.60;;
77217;SDS011;66214;51.302;17.068;2024-02-21T18:04:20;25.50;;;12.00;;
77217;SDS011;66214;51.302;17.068;2024-02-21T18:06:48;27.70;;;12.40;;
77217;SDS011;66214;51.302;17.068;2024-02-21T18:09:17;28.50;;;13.40;;
77217;SDS011;66214;51.302;17.068;2024-02-21T18:11:46;30.10;;;14.30;;
77217;SDS011;66214;51.302;17.068;2024-02-21T18:14:14;24.60;;;12.00;;
77217;SDS011;66214;51.302;17.068;2024-02-21T18:16:43;23.70;;;12.60;;
77217;SDS011;66214;51.302;17.068;2024-02-21T18:19:12;26.00;;;12.10;;
77217;SDS011;66214;51.302;17.068;2024-02-21T18:21:40;21.00;;;11.20;;
77217;SDS011;66214;51.302;17.068;2024-02-21T18:24:09;22.30;;;11.00;;